createdAt,value
2022-11-07T00:00:25.993Z,19.30
2022-11-07T00:02:52.711Z,19.27
2022-11-07T00:05:19.244Z,18.77
2022-11-07T00:07:45.683Z,20.35
2022-11-07T00:10:12.170Z,18.73
2022-11-07T00:12:38.669Z,19.63
2022-11-07T00:15:06.228Z,19.60
2022-11-07T00:17:32.697Z,17.05
2022-11-07T00:19:59.138Z,17.88
2022-11-07T00:22:25.825Z,19.23
2022-11-07T00:24:52.532Z,18.10
2022-11-07T00:27:19.228Z,17.87
2022-11-07T00:29:46.015Z,18.52
2022-11-07T00:32:12.609Z,18.90
2022-11-07T00:34:39.022Z,16.58
2022-11-07T00:37:05.827Z,17.40
2022-11-07T00:39:32.346Z,20.53
2022-11-07T00:41:59.074Z,17.63
2022-11-07T00:44:25.523Z,18.33
2022-11-07T00:46:52.012Z,17.85
2022-11-07T00:49:18.682Z,18.08
2022-11-07T00:51:45.435Z,17.07
2022-11-07T00:54:11.902Z,18.75
2022-11-07T00:56:38.366Z,18.45
2022-11-07T00:59:05.600Z,18.77
2022-11-07T01:01:33.781Z,18.75
2022-11-07T01:04:19.196Z,17.87
2022-11-07T01:06:46.671Z,20.02
2022-11-07T01:09:17.493Z,20.20
2022-11-07T01:11:44.843Z,19.70
2022-11-07T01:14:12.941Z,17.48
2022-11-07T01:16:41.597Z,17.73
2022-11-07T01:19:08.877Z,17.70
2022-11-07T01:21:38.456Z,17.83
2022-11-07T01:24:06.352Z,16.80
2022-11-07T01:26:32.894Z,20.40
2022-11-07T01:28:59.474Z,18.00
2022-11-07T01:31:26.002Z,18.67
2022-11-07T01:33:52.545Z,18.42
2022-11-07T01:36:19.360Z,17.83
2022-11-07T01:38:48.509Z,18.92
2022-11-07T01:41:21.995Z,16.97
2022-11-07T01:43:50.487Z,16.05
2022-11-07T01:46:17.427Z,17.88
2022-11-07T01:48:54.589Z,14.57
2022-11-07T01:51:22.740Z,14.90
2022-11-07T01:53:50.482Z,14.63
2022-11-07T01:56:21.287Z,14.77
2022-11-07T01:58:48.077Z,16.27
2022-11-07T02:01:16.424Z,16.13
2022-11-07T02:03:44.119Z,17.00
2022-11-07T02:06:17.956Z,16.53
2022-11-07T02:08:45.576Z,16.13
2022-11-07T02:11:13.595Z,17.48
2022-11-07T02:13:40.203Z,15.55
2022-11-07T02:16:07.059Z,17.45
2022-11-07T02:18:36.812Z,14.37
2022-11-07T02:21:16.532Z,16.13
2022-11-07T02:23:54.654Z,16.15
2022-11-07T02:26:22.606Z,13.38
2022-11-07T02:28:49.660Z,16.80
2022-11-07T02:31:16.121Z,15.63
2022-11-07T02:33:42.582Z,15.93
2022-11-07T02:36:14.570Z,14.88
2022-11-07T02:38:41.268Z,16.80
2022-11-07T02:41:14.367Z,13.90
2022-11-07T02:43:46.108Z,15.80
2022-11-07T02:46:14.422Z,15.77
2022-11-07T02:48:49.467Z,14.63
2022-11-07T02:51:16.275Z,14.48
2022-11-07T02:53:43.460Z,14.73
2022-11-07T02:56:10.097Z,16.40
2022-11-07T02:58:36.860Z,17.02
2022-11-07T03:01:06.898Z,14.57
2022-11-07T03:03:39.053Z,14.93
2022-11-07T03:06:07.234Z,13.77
2022-11-07T03:08:34.592Z,15.43
2022-11-07T03:11:01.723Z,13.48
2022-11-07T03:13:28.202Z,12.98
2022-11-07T03:15:55.969Z,13.77
2022-11-07T03:18:22.822Z,13.75
2022-11-07T03:20:49.205Z,14.03
2022-11-07T03:23:16.171Z,13.00
2022-11-07T03:25:43.354Z,15.05
2022-11-07T03:28:09.846Z,13.60
2022-11-07T03:30:36.299Z,12.60
2022-11-07T03:33:02.796Z,13.57
2022-11-07T03:35:29.295Z,12.52
2022-11-07T03:37:55.809Z,13.52
2022-11-07T03:40:23.267Z,12.68
2022-11-07T03:42:49.746Z,15.52
2022-11-07T03:45:16.909Z,12.63
2022-11-07T03:47:45.023Z,11.82
2022-11-07T03:50:14.806Z,13.38
2022-11-07T03:52:42.108Z,11.48
2022-11-07T03:55:09.387Z,12.32
2022-11-07T03:57:35.955Z,11.67
2022-11-07T04:00:02.545Z,12.10
2022-11-07T04:02:29.179Z,12.68
2022-11-07T04:04:55.758Z,11.73
2022-11-07T04:07:22.421Z,12.73
2022-11-07T04:09:48.856Z,13.70
2022-11-07T04:12:33.919Z,12.10
2022-11-07T04:15:19.147Z,11.50
2022-11-07T04:17:45.684Z,12.07
2022-11-07T04:20:12.226Z,11.73
2022-11-07T04:22:38.694Z,13.30
2022-11-07T04:25:05.657Z,12.20
2022-11-07T04:27:44.295Z,12.02
2022-11-07T04:30:22.488Z,11.65
2022-11-07T04:32:52.602Z,12.05
2022-11-07T04:35:20.749Z,13.43
2022-11-07T04:37:48.088Z,13.65
2022-11-07T04:40:16.194Z,11.20
2022-11-07T04:42:43.850Z,12.18
2022-11-07T04:45:11.907Z,14.10
2022-11-07T04:47:40.563Z,10.77
2022-11-07T04:50:09.918Z,12.10
2022-11-07T04:52:36.945Z,11.32
2022-11-07T04:55:03.920Z,10.43
2022-11-07T04:57:30.395Z,12.00
2022-11-07T04:59:56.945Z,11.87
2022-11-07T05:02:25.212Z,10.68
2022-11-07T05:04:52.547Z,10.75
2022-11-07T05:07:20.265Z,12.73
2022-11-07T05:09:46.848Z,11.80
2022-11-07T05:12:13.301Z,10.57
2022-11-07T05:14:39.771Z,11.27
2022-11-07T05:17:06.309Z,11.23
2022-11-07T05:19:32.754Z,10.80
2022-11-07T05:22:17.560Z,11.80
2022-11-07T05:24:44.000Z,10.27
2022-11-07T05:27:17.826Z,18.88
2022-11-07T05:29:44.378Z,10.68
2022-11-07T05:32:10.782Z,9.43
2022-11-07T05:34:37.233Z,10.52
2022-11-07T05:37:07.112Z,11.20
2022-11-07T05:39:33.611Z,9.60
2022-11-07T05:42:01.334Z,9.90
2022-11-07T05:44:28.123Z,10.65
2022-11-07T05:46:56.131Z,10.10
2022-11-07T05:49:23.723Z,11.60
2022-11-07T05:51:50.168Z,10.75
2022-11-07T05:54:16.797Z,10.25
2022-11-07T05:56:46.152Z,10.85
2022-11-07T05:59:13.724Z,9.65
2022-11-07T06:01:40.335Z,9.27
2022-11-07T06:04:07.579Z,9.48
2022-11-07T06:06:34.643Z,9.18
2022-11-07T06:09:01.330Z,8.82
2022-11-07T06:11:27.923Z,9.27
2022-11-07T06:13:54.857Z,10.00
2022-11-07T06:16:21.716Z,11.00
2022-11-07T06:18:48.163Z,8.85
2022-11-07T06:21:15.876Z,8.25
2022-11-07T06:23:43.019Z,8.60
2022-11-07T06:26:09.924Z,9.63
2022-11-07T06:28:36.555Z,8.20
2022-11-07T06:31:04.595Z,8.05
2022-11-07T06:33:32.043Z,8.50
2022-11-07T06:36:06.798Z,7.88
2022-11-07T06:38:33.372Z,7.77
2022-11-07T06:41:07.348Z,8.63
2022-11-07T06:43:34.180Z,6.10
2022-11-07T06:46:12.165Z,8.13
2022-11-07T06:48:39.410Z,10.93
2022-11-07T06:51:07.488Z,13.43
2022-11-07T06:53:34.133Z,8.85
2022-11-07T06:56:02.369Z,11.85
2022-11-07T06:58:29.467Z,11.95
2022-11-07T07:01:01.267Z,11.00
2022-11-07T07:03:27.860Z,9.73
2022-11-07T07:05:54.378Z,21.70
2022-11-07T07:08:20.839Z,9.23
2022-11-07T07:10:47.394Z,9.98
2022-11-07T07:13:14.686Z,8.20
2022-11-07T07:15:50.743Z,9.67
2022-11-07T07:18:17.888Z,12.00
2022-11-07T07:20:45.414Z,16.45
2022-11-07T07:23:11.920Z,11.15
2022-11-07T07:25:38.406Z,8.93
2022-11-07T07:28:04.804Z,7.10
2022-11-07T07:30:31.432Z,7.90
2022-11-07T07:32:58.084Z,9.70
2022-11-07T07:35:24.599Z,21.80
2022-11-07T07:37:54.738Z,7.53
2022-11-07T07:40:21.447Z,18.73
2022-11-07T07:42:48.246Z,10.57
2022-11-07T07:45:15.694Z,7.80
2022-11-07T07:47:42.584Z,12.63
2022-11-07T07:50:11.166Z,8.55
2022-11-07T07:52:37.707Z,11.77
2022-11-07T07:55:05.494Z,15.13
2022-11-07T07:57:31.962Z,7.97
2022-11-07T07:59:58.396Z,7.53
2022-11-07T08:02:24.935Z,7.10
2022-11-07T08:04:51.444Z,7.87
2022-11-07T08:07:17.978Z,7.25
2022-11-07T08:09:44.412Z,7.72
2022-11-07T08:12:10.872Z,6.97
2022-11-07T08:14:37.402Z,7.88
2022-11-07T08:17:03.960Z,6.60
2022-11-07T08:19:30.436Z,7.47
2022-11-07T08:21:56.917Z,7.25
2022-11-07T08:24:23.351Z,6.85
2022-11-07T08:26:49.818Z,7.32
2022-11-07T08:29:16.300Z,7.20
2022-11-07T08:31:42.758Z,7.32
2022-11-07T08:34:09.272Z,6.75
2022-11-07T08:36:36.907Z,6.97
2022-11-07T08:39:03.377Z,6.57
2022-11-07T08:41:29.917Z,7.33
2022-11-07T08:43:56.369Z,7.07
2022-11-07T08:46:22.827Z,5.35
2022-11-07T08:48:49.239Z,6.35
2022-11-07T08:51:15.695Z,7.03
2022-11-07T08:53:42.172Z,6.53
2022-11-07T08:56:10.334Z,6.88
2022-11-07T08:58:37.639Z,5.50
2022-11-07T09:01:09.020Z,7.03
2022-11-07T09:03:47.447Z,6.72
2022-11-07T09:06:17.734Z,6.30
2022-11-07T09:08:44.834Z,5.63
2022-11-07T09:11:12.218Z,9.45
2022-11-07T09:13:38.925Z,5.95
2022-11-07T09:16:05.560Z,6.20
2022-11-07T09:18:32.638Z,6.00
2022-11-07T09:20:59.363Z,6.63
2022-11-07T09:23:26.304Z,5.10
2022-11-07T09:25:52.826Z,5.50
2022-11-07T09:28:19.365Z,6.40
2022-11-07T09:30:46.026Z,6.40
2022-11-07T09:33:12.697Z,5.88
2022-11-07T09:35:39.276Z,6.10
2022-11-07T09:38:05.807Z,6.25
2022-11-07T09:40:40.632Z,5.75
2022-11-07T09:43:27.341Z,6.63
2022-11-07T09:46:03.513Z,6.13
2022-11-07T09:48:39.075Z,5.78
2022-11-07T09:51:10.762Z,6.35
2022-11-07T09:53:44.497Z,6.30
2022-11-07T09:56:12.785Z,5.77
2022-11-07T09:58:45.151Z,5.75
2022-11-07T10:01:14.364Z,6.97
2022-11-07T10:03:52.923Z,7.45
2022-11-07T10:06:35.582Z,5.80
2022-11-07T10:09:16.271Z,5.87
2022-11-07T10:11:51.982Z,14.00
2022-11-07T10:14:47.791Z,11.80
2022-11-07T10:17:33.837Z,7.43
2022-11-07T10:20:32.721Z,5.53
2022-11-07T10:23:28.060Z,7.50
2022-11-07T10:26:10.165Z,7.32
2022-11-07T10:28:59.788Z,6.25
2022-11-07T10:31:38.743Z,6.70
2022-11-07T10:34:16.957Z,6.75
2022-11-07T10:36:43.474Z,5.73
2022-11-07T10:39:18.184Z,5.88
2022-11-07T10:41:54.122Z,5.45
2022-11-07T10:44:26.751Z,5.72
2022-11-07T10:46:54.733Z,5.35
2022-11-07T10:49:27.064Z,5.70
2022-11-07T10:51:54.888Z,6.63
2022-11-07T10:54:27.162Z,5.97
2022-11-07T10:57:10.610Z,6.93
2022-11-07T10:59:40.223Z,6.18
2022-11-07T11:02:42.924Z,6.20
2022-11-07T11:05:40.402Z,5.70
2022-11-07T11:08:20.597Z,5.30
2022-11-07T11:10:48.022Z,5.97
2022-11-07T11:13:27.273Z,7.45
2022-11-07T11:15:55.753Z,7.83
2022-11-07T11:18:22.911Z,6.18
2022-11-07T11:20:58.531Z,7.05
2022-11-07T11:23:29.042Z,6.47
2022-11-07T11:26:01.287Z,6.15
2022-11-07T11:28:36.826Z,6.43
2022-11-07T11:31:18.422Z,7.18
2022-11-07T11:33:49.173Z,5.70
2022-11-07T11:36:27.666Z,5.80
2022-11-07T11:38:55.013Z,6.05
2022-11-07T11:41:33.667Z,8.17
2022-11-07T11:44:19.206Z,7.63
2022-11-07T11:46:48.774Z,6.43
2022-11-07T11:49:37.814Z,7.22
2022-11-07T11:52:19.609Z,6.38
2022-11-07T11:54:48.002Z,7.27
2022-11-07T11:57:38.100Z,7.72
2022-11-07T12:00:04.720Z,9.13
2022-11-07T12:02:55.390Z,7.57
2022-11-07T12:05:37.064Z,7.63
2022-11-07T12:08:27.351Z,9.43
2022-11-07T12:11:31.593Z,6.93
2022-11-07T12:14:05.225Z,8.70
2022-11-07T12:16:43.630Z,7.07
2022-11-07T12:19:22.207Z,6.47
2022-11-07T12:21:52.941Z,7.73
2022-11-07T12:24:37.943Z,7.68
2022-11-07T12:27:27.361Z,6.97
2022-11-07T12:30:04.239Z,6.18
2022-11-07T12:32:54.319Z,6.07
2022-11-07T12:35:39.994Z,8.13
2022-11-07T12:38:25.249Z,6.80
2022-11-07T12:41:17.536Z,7.15
2022-11-07T12:44:14.786Z,7.40
2022-11-07T12:46:59.291Z,8.25
2022-11-07T12:49:34.846Z,7.23
2022-11-07T12:52:29.359Z,6.25
2022-11-07T12:55:18.300Z,7.80
2022-11-07T12:57:46.903Z,8.13
2022-11-07T13:00:21.255Z,7.50
2022-11-07T13:03:11.432Z,6.87
2022-11-07T13:05:54.819Z,6.80
2022-11-07T13:08:56.778Z,8.88
2022-11-07T13:11:38.478Z,6.97
2022-11-07T13:14:29.131Z,6.88
2022-11-07T13:17:01.717Z,6.53
2022-11-07T13:19:32.887Z,6.15
2022-11-07T13:22:06.277Z,6.15
2022-11-07T13:24:37.568Z,7.45
2022-11-07T13:27:24.495Z,9.02
2022-11-07T13:29:51.852Z,7.47
2022-11-07T13:32:18.568Z,7.95
2022-11-07T13:34:57.757Z,8.80
2022-11-07T13:37:37.550Z,5.97
2022-11-07T13:40:25.472Z,6.53
2022-11-07T13:42:57.157Z,7.20
2022-11-07T13:45:33.229Z,7.45
2022-11-07T13:48:03.167Z,8.15
2022-11-07T13:50:38.961Z,6.22
2022-11-07T13:53:17.241Z,6.68
2022-11-07T13:56:28.746Z,6.20
2022-11-07T13:58:55.948Z,6.47
2022-11-07T14:01:22.681Z,5.70
2022-11-07T14:03:49.233Z,8.38
2022-11-07T14:06:16.828Z,6.72
2022-11-07T14:08:48.303Z,7.20
2022-11-07T14:11:20.454Z,6.25
2022-11-07T14:13:53.533Z,6.90
2022-11-07T14:16:25.653Z,5.50
2022-11-07T14:19:01.150Z,10.40
2022-11-07T14:21:33.874Z,6.23
2022-11-07T14:24:00.837Z,6.57
2022-11-07T14:26:33.362Z,7.65
2022-11-07T14:29:01.293Z,6.30
2022-11-07T14:31:35.957Z,7.63
2022-11-07T14:34:12.902Z,6.83
2022-11-07T14:37:00.683Z,10.57
2022-11-07T14:39:29.982Z,7.05
2022-11-07T14:41:58.871Z,6.32
2022-11-07T14:44:55.442Z,8.65
2022-11-07T14:47:30.208Z,6.53
2022-11-07T14:49:57.640Z,8.38
2022-11-07T14:52:29.171Z,5.40
2022-11-07T14:55:01.695Z,7.93
2022-11-07T14:57:28.440Z,9.95
2022-11-07T14:59:55.021Z,7.77
2022-11-07T15:02:30.911Z,7.93
2022-11-07T15:05:05.393Z,8.05
2022-11-07T15:07:46.620Z,7.10
2022-11-07T15:10:33.104Z,6.95
2022-11-07T15:13:02.776Z,7.80
2022-11-07T15:15:34.333Z,8.85
2022-11-07T15:18:04.146Z,6.60
2022-11-07T15:20:30.546Z,8.65
2022-11-07T15:22:58.408Z,6.53
2022-11-07T15:25:34.334Z,7.53
2022-11-07T15:28:20.102Z,7.85
2022-11-07T15:30:48.197Z,6.80
2022-11-07T15:33:19.134Z,6.55
2022-11-07T15:35:48.046Z,9.70
2022-11-07T15:38:20.554Z,7.13
2022-11-07T15:40:48.378Z,8.07
2022-11-07T15:43:15.242Z,9.60
2022-11-07T15:45:42.617Z,7.72
2022-11-07T15:48:16.172Z,6.75
2022-11-07T15:50:44.847Z,7.60
2022-11-07T15:53:23.286Z,6.40
2022-11-07T15:55:54.826Z,7.82
2022-11-07T15:58:23.115Z,8.15
2022-11-07T16:00:50.111Z,7.60
2022-11-07T16:03:19.120Z,17.03
2022-11-07T16:05:48.051Z,9.88
2022-11-07T16:08:17.366Z,6.85
2022-11-07T16:10:49.717Z,6.03
2022-11-07T16:13:16.620Z,8.30
2022-11-07T16:15:50.349Z,6.77
2022-11-07T16:18:19.471Z,8.23
2022-11-07T16:20:46.411Z,8.50
2022-11-07T16:23:13.059Z,8.10
2022-11-07T16:25:41.233Z,6.90
2022-11-07T16:28:24.600Z,6.57
2022-11-07T16:30:52.363Z,7.35
2022-11-07T16:33:19.397Z,6.30
2022-11-07T16:35:48.234Z,8.85
2022-11-07T16:38:17.150Z,7.50
2022-11-07T16:40:44.614Z,7.57
2022-11-07T16:43:11.185Z,19.10
2022-11-07T16:45:43.147Z,13.68
2022-11-07T16:48:18.349Z,12.00
2022-11-07T16:50:45.125Z,20.67
2022-11-07T16:53:15.536Z,19.73
2022-11-07T16:55:49.444Z,25.13
2022-11-07T16:58:24.920Z,22.58
2022-11-07T17:00:52.096Z,41.97
2022-11-07T17:03:18.685Z,47.65
2022-11-07T17:05:45.860Z,24.93
2022-11-07T17:08:21.280Z,25.75
2022-11-07T17:10:48.084Z,17.50
2022-11-07T17:13:14.615Z,28.92
2022-11-07T17:15:41.967Z,29.42
2022-11-07T17:18:22.465Z,15.00
2022-11-07T17:20:51.737Z,8.35
2022-11-07T17:23:19.671Z,11.00
2022-11-07T17:25:50.688Z,9.63
2022-11-07T17:28:17.638Z,8.60
2022-11-07T17:30:44.556Z,8.03
2022-11-07T17:33:11.047Z,8.77
2022-11-07T17:35:38.025Z,9.68
2022-11-07T17:38:05.820Z,9.88
2022-11-07T17:40:33.830Z,10.95
2022-11-07T17:43:00.666Z,7.60
2022-11-07T17:45:28.044Z,8.32
2022-11-07T17:47:54.643Z,8.90
2022-11-07T17:50:22.410Z,9.13
2022-11-07T17:52:49.109Z,7.25
2022-11-07T17:55:16.369Z,8.63
2022-11-07T17:57:44.469Z,8.55
2022-11-07T18:00:16.741Z,7.32
2022-11-07T18:02:45.767Z,9.20
2022-11-07T18:05:17.383Z,8.95
2022-11-07T18:07:44.616Z,8.83
2022-11-07T18:10:13.097Z,6.97
2022-11-07T18:12:39.575Z,7.07
2022-11-07T18:15:06.662Z,6.85
2022-11-07T18:17:35.478Z,7.38
2022-11-07T18:20:04.133Z,6.93
2022-11-07T18:22:30.562Z,7.32
2022-11-07T18:24:57.311Z,6.07
2022-11-07T18:27:23.756Z,8.95
2022-11-07T18:29:50.270Z,7.82
2022-11-07T18:32:17.390Z,6.57
2022-11-07T18:34:44.042Z,9.05
2022-11-07T18:37:10.574Z,6.38
2022-11-07T18:39:37.257Z,6.95
2022-11-07T18:42:03.846Z,7.00
2022-11-07T18:44:30.331Z,7.20
2022-11-07T18:46:56.800Z,7.68
2022-11-07T18:49:24.377Z,6.30
2022-11-07T18:51:50.873Z,8.27
2022-11-07T18:54:17.356Z,8.52
2022-11-07T18:56:43.990Z,8.83
2022-11-07T18:59:11.113Z,7.78
2022-11-07T19:01:37.696Z,10.75
2022-11-07T19:04:05.815Z,7.55
2022-11-07T19:06:33.000Z,14.35
2022-11-07T19:09:00.059Z,8.70
2022-11-07T19:11:29.636Z,9.02
2022-11-07T19:13:59.621Z,7.97
2022-11-07T19:16:26.539Z,9.75
2022-11-07T19:18:53.736Z,7.72
2022-11-07T19:21:21.428Z,9.63
2022-11-07T19:23:48.578Z,9.73
2022-11-07T19:26:15.332Z,10.13
2022-11-07T19:28:41.844Z,8.32
2022-11-07T19:31:12.527Z,8.40
2022-11-07T19:33:41.363Z,7.87
2022-11-07T19:36:12.894Z,7.82
2022-11-07T19:38:39.385Z,8.13
2022-11-07T19:41:07.311Z,9.18
2022-11-07T19:43:34.574Z,7.15
2022-11-07T19:46:06.872Z,9.07
2022-11-07T19:48:33.452Z,9.43
2022-11-07T19:50:59.935Z,8.45
2022-11-07T19:53:26.435Z,8.75
2022-11-07T19:55:53.279Z,8.35
2022-11-07T19:58:19.792Z,8.87
2022-11-07T20:00:46.351Z,7.38
2022-11-07T20:03:13.078Z,9.05
2022-11-07T20:05:40.161Z,8.00
2022-11-07T20:08:06.834Z,6.72
2022-11-07T20:10:33.820Z,9.80
2022-11-07T20:13:00.423Z,8.95
2022-11-07T20:15:27.003Z,8.57
2022-11-07T20:17:53.614Z,7.07
2022-11-07T20:20:20.229Z,7.68
2022-11-07T20:22:47.527Z,9.23
2022-11-07T20:25:14.482Z,8.13
2022-11-07T20:27:41.341Z,7.88
2022-11-07T20:30:08.664Z,8.40
2022-11-07T20:32:35.215Z,8.23
2022-11-07T20:35:02.399Z,6.97
2022-11-07T20:37:28.967Z,8.23
2022-11-07T20:39:55.512Z,6.97
2022-11-07T20:42:22.007Z,6.75
2022-11-07T20:44:50.381Z,8.68
2022-11-07T20:47:17.279Z,8.50
2022-11-07T20:49:43.742Z,7.68
2022-11-07T20:52:10.222Z,9.13
2022-11-07T20:54:37.277Z,7.72
2022-11-07T20:57:04.136Z,7.75
2022-11-07T20:59:31.644Z,9.57
2022-11-07T21:02:03.147Z,8.05
2022-11-07T21:04:44.458Z,8.68
2022-11-07T21:07:19.614Z,7.35
2022-11-07T21:09:46.563Z,9.02
2022-11-07T21:12:13.193Z,7.83
2022-11-07T21:14:42.005Z,8.40
2022-11-07T21:17:09.315Z,9.82
2022-11-07T21:19:35.913Z,7.28
2022-11-07T21:22:02.401Z,9.82
2022-11-07T21:24:32.105Z,6.40
2022-11-07T21:26:58.736Z,7.50
2022-11-07T21:29:29.505Z,7.78
2022-11-07T21:31:56.865Z,7.80
2022-11-07T21:34:24.001Z,6.55
2022-11-07T21:36:50.761Z,9.90
2022-11-07T21:39:17.848Z,7.20
2022-11-07T21:41:44.473Z,9.10
2022-11-07T21:44:13.740Z,10.80
2022-11-07T21:46:40.197Z,8.15
2022-11-07T21:49:06.744Z,11.00
2022-11-07T21:51:36.664Z,8.43
2022-11-07T21:54:04.776Z,8.30
2022-11-07T21:56:34.762Z,9.00
2022-11-07T21:59:04.821Z,8.10
2022-11-07T22:01:36.880Z,7.50
2022-11-07T22:04:11.135Z,7.47
2022-11-07T22:06:41.060Z,6.63
2022-11-07T22:09:09.197Z,8.43
2022-11-07T22:11:35.847Z,7.40
2022-11-07T22:14:02.950Z,6.73
2022-11-07T22:16:29.530Z,6.80
2022-11-07T22:18:56.132Z,9.27
2022-11-07T22:21:23.442Z,8.10
2022-11-07T22:23:50.627Z,9.05
2022-11-07T22:26:21.424Z,7.47
2022-11-07T22:28:48.603Z,10.48
2022-11-07T22:31:30.295Z,7.18
2022-11-07T22:33:58.801Z,8.05
2022-11-07T22:36:25.589Z,8.75
2022-11-07T22:38:52.145Z,6.57
2022-11-07T22:41:23.303Z,9.75
2022-11-07T22:43:50.474Z,6.72
2022-11-07T22:46:19.781Z,9.05
2022-11-07T22:48:47.495Z,8.40
2022-11-07T22:51:25.443Z,7.90
2022-11-07T22:53:59.985Z,9.55
2022-11-07T22:56:26.532Z,8.05
2022-11-07T22:58:53.143Z,9.77
2022-11-07T23:01:28.550Z,10.57
2022-11-07T23:03:56.082Z,10.60
2022-11-07T23:06:23.979Z,8.02
2022-11-07T23:08:52.990Z,9.63
2022-11-07T23:11:45.367Z,7.85
2022-11-07T23:14:14.598Z,7.93
2022-11-07T23:16:48.750Z,9.83
2022-11-07T23:19:17.520Z,7.72
2022-11-07T23:21:43.961Z,7.45
2022-11-07T23:24:11.620Z,8.55
2022-11-07T23:26:38.848Z,7.78
2022-11-07T23:29:11.154Z,7.77
2022-11-07T23:31:40.162Z,8.07
2022-11-07T23:34:07.808Z,7.70
2022-11-07T23:36:34.461Z,9.95
2022-11-07T23:39:08.459Z,8.18
2022-11-07T23:41:35.127Z,9.10
2022-11-07T23:44:02.412Z,10.48
2022-11-07T23:46:47.638Z,10.18
2022-11-07T23:49:32.713Z,8.25
2022-11-07T23:51:59.136Z,7.95
2022-11-07T23:54:45.966Z,8.80
2022-11-07T23:57:12.487Z,8.73
